createdAt,value
2022-08-19T00:01:55.361Z,51.55
2022-08-19T00:04:28.322Z,50.36
2022-08-19T00:06:55.863Z,50.72
2022-08-19T00:09:24.500Z,49.60
2022-08-19T00:11:52.572Z,50.34
2022-08-19T00:14:21.874Z,49.86
2022-08-19T00:16:49.704Z,50.69
2022-08-19T00:19:18.697Z,50.31
2022-08-19T00:21:45.664Z,50.84
2022-08-19T00:24:15.142Z,50.35
2022-08-19T00:26:45.129Z,50.77
2022-08-19T00:29:14.139Z,50.04
2022-08-19T00:31:43.226Z,51.01
2022-08-19T00:34:14.138Z,50.68
2022-08-19T00:36:43.649Z,50.75
2022-08-19T00:39:11.709Z,50.69
2022-08-19T00:41:38.879Z,50.53
2022-08-19T00:44:14.662Z,50.59
2022-08-19T00:46:55.411Z,51.41
2022-08-19T00:49:59.375Z,50.94
2022-08-19T00:52:35.983Z,51.20
2022-08-19T00:55:11.272Z,51.10
2022-08-19T00:57:42.600Z,51.49
2022-08-19T01:00:14.783Z,52.41
2022-08-19T01:02:43.223Z,52.49
2022-08-19T01:05:14.559Z,52.16
2022-08-19T01:07:44.323Z,52.37
2022-08-19T01:10:16.209Z,52.71
2022-08-19T01:12:43.654Z,53.07
2022-08-19T01:15:17.001Z,54.40
2022-08-19T01:17:45.520Z,55.70
2022-08-19T01:20:20.415Z,56.34
2022-08-19T01:22:51.159Z,56.88
2022-08-19T01:25:22.988Z,56.70
2022-08-19T01:27:53.396Z,57.33
2022-08-19T01:30:26.898Z,57.03
2022-08-19T01:32:55.444Z,57.72
2022-08-19T01:35:24.961Z,57.73
2022-08-19T01:37:55.697Z,57.50
2022-08-19T01:40:26.197Z,57.04
2022-08-19T01:42:54.802Z,56.60
2022-08-19T01:45:27.148Z,57.16
2022-08-19T01:48:01.594Z,58.01
2022-08-19T01:50:31.163Z,58.38
2022-08-19T01:53:06.128Z,58.54
2022-08-19T01:55:41.333Z,59.18
2022-08-19T01:58:15.931Z,59.71
2022-08-19T02:00:43.410Z,60.13
2022-08-19T02:03:12.362Z,59.86
2022-08-19T02:05:41.180Z,59.50
2022-08-19T02:08:11.138Z,59.22
2022-08-19T02:10:43.313Z,59.24
2022-08-19T02:13:13.247Z,59.07
2022-08-19T02:16:00.307Z,59.09
2022-08-19T02:18:31.691Z,58.51
2022-08-19T02:20:59.045Z,57.89
2022-08-19T02:23:27.087Z,57.74
2022-08-19T02:25:54.601Z,57.23
2022-08-19T02:28:21.754Z,56.71
2022-08-19T02:30:50.035Z,56.36
2022-08-19T02:33:19.864Z,55.56
2022-08-19T02:35:48.108Z,54.70
2022-08-19T02:38:28.783Z,54.63
2022-08-19T02:41:08.607Z,54.55
2022-08-19T02:43:39.647Z,53.92
2022-08-19T02:46:23.589Z,55.04
2022-08-19T02:48:52.474Z,55.43
2022-08-19T02:51:28.613Z,54.88
2022-08-19T02:53:56.319Z,55.43
2022-08-19T02:56:25.278Z,55.03
2022-08-19T02:58:52.542Z,54.74
2022-08-19T03:01:29.638Z,55.72
2022-08-19T03:03:58.074Z,56.24
2022-08-19T03:06:25.702Z,56.42
2022-08-19T03:08:53.567Z,57.60
2022-08-19T03:11:32.443Z,58.33
2022-08-19T03:14:01.121Z,59.41
2022-08-19T03:16:30.091Z,59.20
2022-08-19T03:19:03.162Z,59.61
2022-08-19T03:21:32.409Z,59.70
2022-08-19T03:24:02.749Z,59.41
2022-08-19T03:26:30.650Z,59.92
2022-08-19T03:28:59.025Z,59.79
2022-08-19T03:31:44.191Z,59.88
2022-08-19T03:34:15.856Z,59.15
2022-08-19T03:36:43.111Z,59.08
2022-08-19T03:39:11.883Z,59.02
2022-08-19T03:41:45.573Z,59.28
2022-08-19T03:44:17.011Z,59.40
2022-08-19T03:46:46.923Z,59.65
2022-08-19T03:49:14.658Z,60.73
2022-08-19T03:51:43.604Z,60.62
2022-08-19T03:54:13.957Z,60.73
2022-08-19T03:56:43.064Z,60.17
2022-08-19T03:59:15.544Z,59.49
2022-08-19T04:01:42.582Z,58.48
2022-08-19T04:04:10.055Z,58.57
2022-08-19T04:06:40.139Z,58.44
2022-08-19T04:09:10.471Z,57.92
2022-08-19T04:11:49.894Z,57.85
2022-08-19T04:14:22.317Z,57.41
2022-08-19T04:16:50.576Z,56.02
2022-08-19T04:19:20.371Z,54.46
2022-08-19T04:21:51.684Z,53.95
2022-08-19T04:24:20.488Z,53.61
2022-08-19T04:26:51.265Z,53.24
2022-08-19T04:29:23.066Z,53.81
2022-08-19T04:31:51.394Z,54.39
2022-08-19T04:34:23.614Z,54.35
2022-08-19T04:36:53.241Z,55.04
2022-08-19T04:39:48.632Z,54.67
2022-08-19T04:42:37.136Z,53.14
2022-08-19T04:45:09.246Z,53.42
2022-08-19T04:47:48.016Z,52.43
2022-08-19T04:50:21.554Z,51.60
2022-08-19T04:52:52.593Z,50.68
2022-08-19T04:55:19.937Z,50.72
2022-08-19T04:57:48.760Z,51.32
2022-08-19T05:00:16.083Z,49.77
2022-08-19T05:02:43.968Z,50.75
2022-08-19T05:05:11.353Z,50.40
2022-08-19T05:07:39.392Z,50.29
2022-08-19T05:10:06.929Z,49.52
2022-08-19T05:12:35.480Z,50.07
2022-08-19T05:15:04.858Z,49.91
2022-08-19T05:17:38.236Z,51.45
2022-08-19T05:20:29.477Z,52.66
2022-08-19T05:22:57.569Z,53.26
2022-08-19T05:25:27.116Z,52.05
2022-08-19T05:27:54.221Z,51.47
2022-08-19T05:30:33.638Z,51.29
2022-08-19T05:33:11.078Z,50.27
2022-08-19T05:35:42.612Z,49.52
2022-08-19T05:38:10.085Z,49.19
2022-08-19T05:40:38.483Z,49.05
2022-08-19T05:43:09.469Z,49.18
2022-08-19T05:45:42.447Z,49.55
2022-08-19T05:48:17.145Z,49.93
2022-08-19T05:50:47.832Z,49.50
2022-08-19T05:53:18.523Z,48.36
2022-08-19T05:55:47.093Z,48.65
2022-08-19T05:58:14.387Z,48.57
2022-08-19T06:00:44.964Z,48.63
2022-08-19T06:03:15.577Z,48.86
2022-08-19T06:05:51.511Z,48.68
2022-08-19T06:08:20.740Z,49.33
2022-08-19T06:11:17.537Z,47.24
2022-08-19T06:13:48.277Z,46.44
2022-08-19T06:16:22.464Z,45.75
2022-08-19T06:18:53.459Z,45.58
2022-08-19T06:21:24.935Z,44.94
2022-08-19T06:23:55.781Z,44.38
2022-08-19T06:26:24.773Z,45.02
2022-08-19T06:28:53.899Z,44.26
2022-08-19T06:31:25.180Z,43.25
2022-08-19T06:33:55.557Z,42.45
2022-08-19T06:36:31.122Z,42.39
2022-08-19T06:39:00.080Z,42.21
2022-08-19T06:41:33.562Z,41.31
2022-08-19T06:44:03.809Z,41.45
2022-08-19T06:46:35.169Z,40.38
2022-08-19T06:49:02.517Z,40.68
2022-08-19T06:53:59.484Z,42.06
2022-08-19T06:56:36.688Z,42.53
2022-08-19T06:59:13.967Z,40.87
2022-08-19T07:01:52.070Z,41.36
2022-08-19T07:04:23.793Z,41.05
2022-08-19T07:06:58.577Z,40.34
2022-08-19T07:09:31.548Z,41.03
2022-08-19T07:12:03.356Z,40.59
2022-08-19T07:14:39.647Z,40.50
2022-08-19T07:17:11.676Z,41.24
2022-08-19T07:19:41.373Z,40.09
2022-08-19T07:22:12.985Z,40.38
2022-08-19T07:24:50.976Z,40.61
2022-08-19T07:27:24.675Z,39.45
2022-08-19T07:29:57.444Z,40.29
2022-08-19T07:32:27.917Z,40.09
2022-08-19T07:34:57.148Z,39.75
2022-08-19T07:37:33.103Z,38.32
2022-08-19T07:40:06.580Z,38.12
2022-08-19T07:42:35.350Z,37.45
2022-08-19T07:45:09.453Z,37.62
2022-08-19T07:47:49.171Z,36.79
2022-08-19T07:50:22.794Z,36.75
2022-08-19T07:52:51.497Z,36.64
2022-08-19T07:55:42.713Z,36.73
2022-08-19T07:58:20.116Z,37.02
2022-08-19T08:00:50.363Z,35.95
2022-08-19T08:03:43.188Z,35.49
2022-08-19T08:06:29.351Z,35.08
2022-08-19T08:09:16.541Z,34.86
2022-08-19T08:11:51.388Z,35.17
2022-08-19T08:14:35.166Z,35.37
2022-08-19T08:17:10.858Z,35.18
2022-08-19T08:19:39.377Z,34.80
2022-08-19T08:22:09.385Z,34.43
2022-08-19T08:24:47.785Z,33.71
2022-08-19T08:27:17.082Z,33.84
2022-08-19T08:29:45.586Z,35.08
2022-08-19T08:32:14.041Z,34.80
2022-08-19T08:34:44.445Z,35.26
2022-08-19T08:37:17.009Z,35.09
2022-08-19T08:39:47.122Z,34.98
2022-08-19T08:42:27.827Z,34.60
2022-08-19T08:45:04.215Z,35.37
2022-08-19T08:47:41.933Z,34.92
2022-08-19T08:50:18.116Z,35.26
2022-08-19T08:52:53.063Z,35.65
2022-08-19T08:55:25.512Z,35.39
2022-08-19T08:58:03.120Z,34.59
2022-08-19T09:00:50.874Z,34.15
2022-08-19T09:03:25.177Z,34.58
2022-08-19T09:06:11.863Z,34.30
2022-08-19T09:09:11.842Z,34.21
2022-08-19T09:12:01.514Z,34.04
2022-08-19T09:14:51.516Z,34.13
2022-08-19T09:17:38.126Z,34.24
2022-08-19T09:20:15.921Z,33.80
2022-08-19T09:22:48.286Z,34.51
2022-08-19T09:25:24.628Z,34.62
2022-08-19T09:28:02.606Z,35.39
2022-08-19T09:30:42.401Z,34.54
2022-08-19T09:33:09.749Z,33.50
2022-08-19T09:35:50.129Z,33.41
2022-08-19T09:38:22.713Z,33.59
2022-08-19T09:40:52.565Z,34.19
2022-08-19T09:43:33.186Z,33.80
2022-08-19T09:46:03.424Z,33.61
2022-08-19T09:48:33.958Z,33.54
2022-08-19T09:51:30.070Z,33.49
2022-08-19T09:54:04.846Z,33.52
2022-08-19T09:56:33.967Z,32.47
2022-08-19T09:59:05.563Z,32.55
2022-08-19T10:01:34.876Z,33.21
2022-08-19T10:04:19.918Z,32.77
2022-08-19T10:06:53.478Z,33.22
2022-08-19T10:09:26.309Z,33.53
2022-08-19T10:12:02.799Z,33.12
2022-08-19T10:14:31.329Z,33.40
2022-08-19T10:17:02.034Z,33.13
2022-08-19T10:19:55.151Z,32.99
2022-08-19T10:22:25.519Z,32.84
2022-08-19T10:24:57.274Z,32.98
2022-08-19T10:27:26.529Z,32.94
2022-08-19T10:29:58.212Z,32.98
2022-08-19T10:32:33.923Z,33.39
2022-08-19T10:35:05.408Z,32.66
2022-08-19T10:37:33.958Z,32.64
2022-08-19T10:40:07.894Z,32.29
2022-08-19T10:42:37.233Z,32.23
2022-08-19T10:45:07.305Z,33.22
2022-08-19T10:47:34.952Z,33.04
2022-08-19T10:54:53.535Z,31.79
2022-08-19T10:57:27.912Z,31.86
2022-08-19T11:00:05.297Z,32.52
2022-08-19T11:02:33.973Z,32.69
2022-08-19T11:05:12.433Z,32.10
2022-08-19T11:07:43.836Z,31.38
2022-08-19T11:10:18.217Z,33.03
2022-08-19T11:12:55.764Z,32.86
2022-08-19T11:15:25.736Z,33.24
2022-08-19T11:17:56.281Z,32.97
2022-08-19T11:20:24.719Z,33.36
2022-08-19T11:22:54.732Z,32.14
2022-08-19T11:25:21.763Z,32.64
2022-08-19T11:27:52.138Z,32.46
2022-08-19T11:30:21.711Z,32.27
2022-08-19T11:32:54.749Z,33.31
2022-08-19T11:35:24.734Z,33.09
2022-08-19T11:37:51.834Z,33.49
2022-08-19T11:40:20.858Z,32.83
2022-08-19T11:42:58.097Z,31.65
2022-08-19T11:45:28.525Z,31.82
2022-08-19T11:47:56.667Z,31.84
2022-08-19T11:50:26.782Z,31.62
2022-08-19T11:52:58.523Z,32.06
2022-08-19T11:55:26.774Z,33.70
2022-08-19T11:57:53.987Z,33.96
2022-08-19T12:00:21.676Z,34.06
2022-08-19T12:02:49.106Z,33.61
2022-08-19T12:05:16.250Z,32.87
2022-08-19T12:07:44.663Z,32.96
2022-08-19T12:10:12.855Z,32.10
2022-08-19T12:12:43.686Z,32.01
2022-08-19T12:15:13.141Z,31.64
2022-08-19T12:17:41.195Z,31.51
2022-08-19T12:20:11.442Z,31.40
2022-08-19T12:22:39.277Z,32.10
2022-08-19T12:25:12.501Z,32.97
2022-08-19T12:27:41.675Z,33.32
2022-08-19T12:30:14.826Z,33.35
2022-08-19T12:32:46.353Z,32.86
2022-08-19T12:35:15.675Z,32.63
2022-08-19T12:37:55.758Z,32.25
2022-08-19T12:40:26.799Z,32.40
2022-08-19T12:42:56.589Z,32.63
2022-08-19T12:45:23.973Z,31.64
2022-08-19T12:47:52.177Z,31.50
2022-08-19T12:50:24.441Z,31.07
2022-08-19T12:52:51.963Z,31.93
2022-08-19T12:55:20.399Z,32.49
2022-08-19T12:57:49.290Z,32.85
2022-08-19T13:00:20.831Z,32.58
2022-08-19T13:02:52.372Z,32.50
2022-08-19T13:05:23.602Z,32.66
2022-08-19T13:07:53.503Z,32.98
2022-08-19T13:10:22.012Z,32.86
2022-08-19T13:12:51.528Z,32.30
2022-08-19T13:15:24.229Z,32.05
2022-08-19T13:17:53.809Z,31.56
2022-08-19T13:20:22.090Z,31.50
2022-08-19T13:22:55.691Z,31.39
2022-08-19T13:25:26.662Z,32.00
2022-08-19T13:27:56.333Z,32.78
2022-08-19T13:30:44.973Z,32.27
2022-08-19T13:33:15.348Z,32.33
2022-08-19T13:35:57.200Z,32.14
2022-08-19T13:38:24.891Z,31.76
2022-08-19T13:40:54.451Z,31.29
2022-08-19T13:43:27.931Z,31.30
2022-08-19T13:45:58.945Z,31.29
2022-08-19T13:48:30.383Z,31.87
2022-08-19T13:50:58.026Z,30.98
2022-08-19T13:53:25.731Z,31.97
2022-08-19T13:55:54.717Z,31.94
2022-08-19T13:58:23.963Z,32.10
2022-08-19T14:00:51.779Z,32.22
2022-08-19T14:03:19.112Z,32.45
2022-08-19T14:05:47.712Z,32.66
2022-08-19T14:08:15.296Z,32.56
2022-08-19T14:10:45.464Z,32.38
2022-08-19T14:13:16.910Z,32.72
2022-08-19T14:15:44.489Z,32.44
2022-08-19T14:18:12.303Z,32.33
2022-08-19T14:20:39.203Z,32.49
2022-08-19T14:23:07.220Z,31.90
2022-08-19T14:25:35.291Z,32.16
2022-08-19T14:28:03.452Z,32.07
2022-08-19T14:30:34.026Z,32.08
2022-08-19T14:33:03.068Z,31.89
2022-08-19T14:35:33.731Z,31.84
2022-08-19T14:38:01.057Z,32.05
2022-08-19T14:40:30.520Z,32.29
2022-08-19T14:43:05.083Z,31.98
2022-08-19T14:45:39.019Z,32.79
2022-08-19T14:48:12.496Z,32.61
2022-08-19T14:50:46.294Z,33.06
2022-08-19T14:53:14.378Z,32.49
2022-08-19T14:55:43.666Z,32.92
2022-08-19T14:58:28.546Z,33.46
2022-08-19T15:01:00.453Z,32.94
2022-08-19T15:03:28.368Z,32.91
2022-08-19T15:05:58.585Z,32.44
2022-08-19T15:08:28.391Z,33.09
2022-08-19T15:10:55.747Z,32.42
2022-08-19T15:13:23.116Z,32.55
2022-08-19T15:15:50.187Z,32.53
2022-08-19T15:18:17.849Z,32.48
2022-08-19T15:20:46.763Z,32.64
2022-08-19T15:23:16.769Z,33.01
2022-08-19T15:25:44.974Z,33.12
2022-08-19T15:28:12.726Z,32.91
2022-08-19T15:30:41.331Z,33.41
2022-08-19T15:33:08.780Z,33.75
2022-08-19T15:35:35.894Z,33.61
2022-08-19T15:38:03.261Z,33.69
2022-08-19T15:40:30.542Z,33.50
2022-08-19T15:43:01.597Z,33.41
2022-08-19T15:45:32.771Z,33.76
2022-08-19T15:48:05.581Z,33.53
2022-08-19T15:50:32.722Z,33.85
2022-08-19T15:53:03.493Z,33.43
2022-08-19T15:55:35.204Z,33.97
2022-08-19T15:58:28.513Z,33.34
2022-08-19T16:01:21.768Z,33.63
2022-08-19T16:04:13.957Z,34.05
2022-08-19T16:06:57.935Z,33.56
2022-08-19T16:09:29.155Z,34.27
2022-08-19T16:12:02.592Z,34.14
2022-08-19T16:14:35.359Z,34.22
2022-08-19T16:17:03.176Z,35.03
2022-08-19T16:19:31.509Z,35.00
2022-08-19T16:22:00.517Z,36.00
2022-08-19T16:24:28.651Z,35.05
2022-08-19T16:26:58.325Z,35.85
2022-08-19T16:29:33.580Z,36.28
2022-08-19T16:32:11.617Z,35.48
2022-08-19T16:34:43.888Z,35.70
2022-08-19T16:37:12.644Z,37.43
2022-08-19T16:39:41.351Z,36.54
2022-08-19T16:42:12.268Z,36.46
2022-08-19T16:44:45.291Z,36.41
2022-08-19T16:47:13.357Z,35.94
2022-08-19T16:49:52.350Z,36.54
2022-08-19T16:52:26.339Z,36.73
2022-08-19T16:54:54.024Z,36.77
2022-08-19T16:57:24.170Z,37.91
2022-08-19T16:59:52.470Z,38.10
2022-08-19T17:02:30.462Z,37.30
2022-08-19T17:04:59.425Z,37.59
2022-08-19T17:07:32.297Z,38.16
2022-08-19T17:10:02.547Z,37.97
2022-08-19T17:12:32.351Z,37.78
2022-08-19T17:15:02.257Z,38.03
2022-08-19T17:17:31.659Z,37.72
2022-08-19T17:20:18.823Z,38.04
2022-08-19T17:22:47.445Z,38.10
2022-08-19T17:25:15.977Z,37.78
2022-08-19T17:27:43.589Z,38.61
2022-08-19T17:30:12.729Z,38.70
2022-08-19T17:32:40.484Z,37.93
2022-08-19T17:36:01.318Z,38.35
2022-08-19T17:38:30.080Z,37.89
2022-08-19T17:41:05.081Z,39.46
2022-08-19T17:43:41.306Z,38.80
2022-08-19T17:46:10.991Z,39.22
2022-08-19T17:48:39.003Z,38.92
2022-08-19T17:51:36.049Z,40.35
2022-08-19T17:54:06.294Z,39.29
2022-08-19T17:56:33.331Z,39.58
2022-08-19T17:59:02.095Z,39.37
2022-08-19T18:01:40.284Z,37.57
2022-08-19T18:04:20.390Z,38.33
2022-08-19T18:06:53.131Z,37.97
2022-08-19T18:09:24.515Z,38.17
2022-08-19T18:11:53.635Z,38.36
2022-08-19T18:14:33.041Z,38.54
2022-08-19T18:17:09.441Z,40.43
2022-08-19T18:19:42.014Z,39.96
2022-08-19T18:22:12.790Z,39.61
2022-08-19T18:24:42.910Z,38.74
2022-08-19T18:27:14.685Z,39.33
2022-08-19T18:29:42.050Z,39.22
2022-08-19T18:32:13.918Z,39.82
2022-08-19T18:34:46.042Z,39.76
2022-08-19T18:37:17.970Z,40.38
2022-08-19T18:40:07.034Z,39.67
2022-08-19T18:42:53.784Z,39.12
2022-08-19T18:45:39.503Z,39.50
2022-08-19T18:48:30.530Z,40.47
2022-08-19T18:51:02.767Z,40.62
2022-08-19T18:53:34.978Z,40.68
2022-08-19T18:56:03.652Z,41.58
2022-08-19T18:58:34.983Z,41.37
2022-08-19T19:01:11.758Z,41.27
2022-08-19T19:03:53.155Z,41.67
2022-08-19T19:06:28.980Z,41.18
2022-08-19T19:08:58.743Z,41.27
2022-08-19T19:11:35.745Z,42.39
2022-08-19T19:14:16.244Z,42.07
2022-08-19T19:16:55.372Z,42.41
2022-08-19T19:19:23.990Z,42.00
2022-08-19T19:21:55.677Z,42.51
2022-08-19T19:24:29.119Z,42.94
2022-08-19T19:26:58.400Z,42.34
2022-08-19T19:29:28.059Z,42.46
2022-08-19T19:31:56.187Z,41.95
2022-08-19T19:34:29.820Z,42.42
2022-08-19T19:36:57.746Z,42.83
2022-08-19T19:39:44.781Z,44.01
2022-08-19T19:42:19.952Z,42.35
2022-08-19T19:44:50.717Z,42.45
2022-08-19T19:47:22.723Z,42.39
2022-08-19T19:50:14.883Z,42.80
2022-08-19T19:52:46.138Z,43.00
2022-08-19T19:55:18.578Z,41.99
2022-08-19T19:57:49.575Z,42.89
2022-08-19T20:00:18.905Z,43.39
2022-08-19T20:02:50.491Z,43.43
2022-08-19T20:05:21.649Z,44.28
2022-08-19T20:08:09.521Z,45.73
2022-08-19T20:10:37.405Z,44.94
2022-08-19T20:13:07.960Z,46.44
2022-08-19T20:15:40.376Z,45.72
2022-08-19T20:18:10.904Z,45.78
2022-08-19T20:20:38.231Z,45.92
2022-08-19T20:23:05.771Z,45.54
2022-08-19T20:25:34.127Z,45.75
2022-08-19T20:28:01.897Z,45.65
2022-08-19T20:30:32.605Z,46.01
2022-08-19T20:33:00.875Z,46.14
2022-08-19T20:35:28.074Z,46.14
2022-08-19T20:37:58.246Z,45.63
2022-08-19T20:40:27.015Z,46.88
2022-08-19T20:42:57.023Z,46.81
2022-08-19T20:45:33.149Z,47.09
2022-08-19T20:48:03.002Z,45.98
2022-08-19T20:50:35.293Z,46.32
2022-08-19T20:53:10.532Z,47.11
2022-08-19T20:55:37.542Z,47.00
2022-08-19T20:58:05.944Z,47.25
2022-08-19T21:00:33.753Z,47.77
2022-08-19T21:03:02.111Z,47.87
2022-08-19T21:05:30.794Z,48.08
2022-08-19T21:07:58.561Z,49.52
2022-08-19T21:10:26.604Z,48.48
2022-08-19T21:12:54.092Z,48.36
2022-08-19T21:15:21.345Z,48.45
2022-08-19T21:17:48.928Z,48.92
2022-08-19T21:20:18.452Z,49.61
2022-08-19T21:22:47.055Z,49.70
2022-08-19T21:25:15.598Z,49.08
2022-08-19T21:27:42.703Z,48.92
2022-08-19T21:30:10.627Z,49.51
2022-08-19T21:32:38.974Z,48.96
2022-08-19T21:35:06.558Z,49.80
2022-08-19T21:37:35.526Z,48.77
2022-08-19T21:40:03.516Z,48.85
2022-08-19T21:42:33.218Z,48.88
2022-08-19T21:45:01.192Z,49.02
2022-08-19T21:47:30.253Z,48.40
2022-08-19T21:49:57.262Z,48.98
2022-08-19T21:52:26.926Z,49.17
2022-08-19T21:54:55.564Z,50.33
2022-08-19T21:57:24.578Z,50.74
2022-08-19T21:59:52.779Z,51.48
2022-08-19T22:02:22.106Z,51.52
2022-08-19T22:04:51.043Z,52.34
2022-08-19T22:07:22.601Z,52.74
2022-08-19T22:09:51.196Z,52.62
2022-08-19T22:12:29.978Z,52.28
2022-08-19T22:14:57.871Z,53.32
2022-08-19T22:17:28.438Z,54.00
2022-08-19T22:19:56.768Z,54.00
2022-08-19T22:22:29.211Z,54.11
2022-08-19T22:25:31.222Z,54.17
2022-08-19T22:28:02.191Z,53.54
2022-08-19T22:30:33.921Z,53.85
2022-08-19T22:33:05.044Z,53.97
2022-08-19T22:35:34.606Z,54.15
2022-08-19T22:38:03.626Z,54.39
2022-08-19T22:40:31.264Z,54.11
2022-08-19T22:43:00.204Z,54.11
2022-08-19T22:45:28.957Z,53.36
2022-08-19T22:47:56.346Z,53.03
2022-08-19T22:50:23.972Z,53.16
2022-08-19T22:52:57.949Z,53.22
2022-08-19T22:55:26.707Z,54.47
2022-08-19T22:57:54.548Z,55.30
2022-08-19T23:00:27.521Z,55.73
2022-08-19T23:02:59.119Z,56.72
2022-08-19T23:05:29.700Z,56.97
2022-08-19T23:07:58.025Z,56.86
2022-08-19T23:10:30.179Z,56.18
2022-08-19T23:12:59.189Z,55.95
2022-08-19T23:15:30.574Z,56.06
2022-08-19T23:18:00.406Z,55.36
2022-08-19T23:20:34.143Z,54.61
2022-08-19T23:23:03.953Z,54.18
2022-08-19T23:25:33.964Z,53.71
2022-08-19T23:28:20.129Z,53.99
2022-08-19T23:30:50.318Z,52.93
2022-08-19T23:33:46.601Z,53.86
2022-08-19T23:36:17.116Z,53.70
2022-08-19T23:38:46.716Z,54.17
2022-08-19T23:41:15.792Z,54.87
2022-08-19T23:43:43.605Z,55.87
2022-08-19T23:46:13.262Z,56.01
2022-08-19T23:48:40.655Z,55.94
2022-08-19T23:51:11.019Z,56.56
2022-08-19T23:53:39.758Z,56.34
2022-08-19T23:56:08.197Z,56.98
2022-08-19T23:58:37.299Z,57.74
